Time;durP1;ratioP1;P1;durP2;ratioP2;P2;SDS_P1;SDS_P2;PMS_P1;PMS_P2;Temp;Humidity;BMP_temperature;BMP_pressure;BME280_temperature;BME280_humidity;BME280_pressure;Samples;Min_cycle;Max_cycle;Signal;HPM_P1;HPM_P2
2022/03/12 00:00:30;;;;;;;36.30;24.83;;;;;;;6.28;85.29;100720.00;4985105;28;20031;-79
2022/03/12 00:02:59;;;;;;;35.38;24.48;;;;;;;6.21;85.39;100723.03;4988770;28;20033;-81
2022/03/12 00:05:27;;;;;;;38.90;26.10;;;;;;;6.14;85.36;100733.88;4995279;28;20019;-83
2022/03/12 00:07:53;;;;;;;37.67;23.45;;;;;;;6.10;85.98;100729.75;4993700;28;20048;-81
2022/03/12 00:10:22;;;;;;;39.08;25.70;;;;;;;6.08;86.08;100728.97;4989894;28;20038;-81
2022/03/12 00:12:50;;;;;;;40.83;26.83;;;;;;;6.03;86.25;100731.00;4988890;28;20113;-80
2022/03/12 00:15:15;;;;;;;39.97;25.70;;;;;;;6.01;87.15;100732.00;4970866;28;20490;-81
2022/03/12 00:17:46;;;;;;;44.10;25.67;;;;;;;5.94;87.44;100736.78;5003902;28;20077;-81
2022/03/12 00:20:18;;;;;;;41.35;26.05;;;;;;;5.88;88.20;100737.13;5004823;28;20042;-79
2022/03/12 00:22:48;;;;;;;39.92;25.98;;;;;;;5.84;87.56;100737.31;4989031;28;20031;-79
2022/03/12 00:25:18;;;;;;;37.85;25.35;;;;;;;5.82;87.96;100744.44;5004288;28;20045;-79
2022/03/12 00:27:44;;;;;;;39.88;26.88;;;;;;;5.80;88.06;100744.50;4988493;28;20030;-79
2022/03/12 00:30:17;;;;;;;41.95;26.83;;;;;;;5.77;88.26;100740.25;4987473;28;20035;-81
2022/03/12 00:32:44;;;;;;;41.80;25.70;;;;;;;5.76;88.36;100732.50;4995277;28;20134;-80
2022/03/12 00:35:10;;;;;;;36.20;25.35;;;;;;;5.74;88.33;100734.34;4989166;28;20055;-80
2022/03/12 00:37:37;;;;;;;37.90;26.08;;;;;;;5.74;88.55;100744.84;4991650;28;20376;-81
2022/03/12 00:40:05;;;;;;;39.22;27.20;;;;;;;5.68;88.73;100746.00;4986720;28;20039;-81
2022/03/12 00:42:31;;;;;;;41.50;25.77;;;;;;;5.65;89.66;100748.81;4986917;28;20045;-80
2022/03/12 00:44:57;;;;;;;41.53;27.60;;;;;;;5.62;89.56;100750.72;4987260;28;20113;-82
2022/03/12 00:47:26;;;;;;;43.08;26.95;;;;;;;5.57;89.91;100742.28;4988472;28;20418;-83
2022/03/12 00:49:53;;;;;;;48.20;26.77;;;;;;;5.57;89.68;100742.28;4993306;28;20092;-81
2022/03/12 00:52:19;;;;;;;46.30;26.33;;;;;;;5.59;90.03;100750.91;5006053;28;20046;-83
2022/03/12 00:54:45;;;;;;;38.35;26.05;;;;;;;5.59;90.15;100757.00;4994963;28;20034;-81
2022/03/12 00:57:12;;;;;;;40.70;25.77;;;;;;;5.61;89.49;100754.28;4989581;28;20039;-80
2022/03/12 00:59:40;;;;;;;40.78;26.00;;;;;;;5.60;90.24;100742.94;4986031;28;20099;-81
2022/03/12 01:02:13;;;;;;;40.47;25.08;;;;;;;5.61;89.96;100749.03;4981798;28;20083;-79
2022/03/12 01:04:39;;;;;;;38.00;25.60;;;;;;;5.61;90.37;100744.66;4984561;28;20089;-80
2022/03/12 01:07:04;;;;;;;42.30;26.30;;;;;;;5.63;90.23;100742.81;5013648;28;20478;-81
2022/03/12 01:09:30;;;;;;;35.55;24.20;;;;;;;5.66;89.11;100742.63;4984915;28;20095;-80
2022/03/12 01:11:56;;;;;;;34.90;23.70;;;;;;;5.66;89.21;100731.31;4981911;28;20050;-81
2022/03/12 01:14:23;;;;;;;33.38;22.75;;;;;;;5.67;88.86;100733.00;4985895;28;20038;-79
2022/03/12 01:16:48;;;;;;;30.40;21.38;;;;;;;5.66;88.60;100726.06;4983528;28;20034;-78
2022/03/12 01:19:15;;;;;;;35.85;23.13;;;;;;;5.66;88.91;100728.69;4985231;28;20031;-80
2022/03/12 01:21:41;;;;;;;35.35;23.02;;;;;;;5.63;88.47;100728.88;4984851;28;20050;-80
2022/03/12 01:24:08;;;;;;;33.53;21.55;;;;;;;5.62;88.45;100724.53;4983732;28;20042;-81
2022/03/12 01:26:35;;;;;;;39.22;22.52;;;;;;;5.58;88.41;100728.28;4986158;28;20061;-79
2022/03/12 01:29:01;;;;;;;33.88;22.33;;;;;;;5.56;88.13;100730.97;4983997;28;20090;-78
2022/03/12 01:31:27;;;;;;;35.75;23.08;;;;;;;5.52;88.16;100733.84;4994977;28;20089;-80
2022/03/12 01:33:52;;;;;;;33.58;22.00;;;;;;;5.50;88.96;100740.91;4988033;28;20038;-81
2022/03/12 01:36:18;;;;;;;30.30;20.63;;;;;;;5.46;88.42;100734.16;4983113;28;20371;-80
2022/03/12 01:38:54;;;;;;;33.75;21.52;;;;;;;5.44;88.37;100733.38;4988606;28;20065;-81
2022/03/12 01:41:26;;;;;;;35.63;21.50;;;;;;;5.41;89.23;100725.72;4981659;28;20368;-81
2022/03/12 01:43:53;;;;;;;31.23;20.45;;;;;;;5.43;89.25;100735.16;4986769;28;20030;-81
2022/03/12 01:46:34;;;;;;;27.52;19.58;;;;;;;5.42;88.93;100732.66;4999437;28;20053;-81
2022/03/12 01:49:04;;;;;;;;;;;;;;;5.34;88.69;100722.56;4985032;28;20794;-79
2022/03/12 01:51:30;;;;;;;32.63;20.05;;;;;;;5.33;88.56;100724.34;4985127;28;20364;-80
2022/03/12 01:53:56;;;;;;;30.73;19.00;;;;;;;5.25;88.79;100721.28;4985849;28;20432;-80
2022/03/12 01:56:27;;;;;;;34.92;19.58;;;;;;;5.23;88.85;100723.16;4988160;28;20103;-80
2022/03/12 01:58:54;;;;;;;33.25;19.70;;;;;;;5.23;89.18;100715.28;4986130;28;20038;-80
2022/03/12 02:01:21;;;;;;;28.98;19.42;;;;;;;5.20;89.05;100715.44;4988453;28;20035;-81
2022/03/12 02:03:48;;;;;;;28.52;18.15;;;;;;;5.18;89.22;100714.69;4983628;28;20437;-80
2022/03/12 02:06:16;;;;;;;30.17;19.15;;;;;;;5.15;89.54;100714.84;4986148;28;20042;-80
2022/03/12 02:08:43;;;;;;;28.95;18.80;;;;;;;5.15;89.85;100714.84;4992755;28;20755;-80
2022/03/12 02:11:08;;;;;;;35.03;19.45;;;;;;;5.11;89.99;100718.56;4984044;28;20065;-80
2022/03/12 02:13:35;;;;;;;28.27;19.27;;;;;;;5.08;89.91;100718.69;5000080;28;20530;-80
2022/03/12 02:16:07;;;;;;;23.75;18.10;;;;;;;5.07;89.96;100719.63;4981752;28;20033;-79
2022/03/12 02:18:32;;;;;;;24.67;17.30;;;;;;;5.07;90.32;100717.00;4981491;28;20038;-80
2022/03/12 02:20:59;;;;;;;24.30;16.50;;;;;;;5.10;89.41;100714.22;4981363;28;20113;-80
2022/03/12 02:23:24;;;;;;;29.38;18.23;;;;;;;5.09;89.59;100714.31;4983529;28;20042;-80
2022/03/12 02:25:50;;;;;;;27.40;17.73;;;;;;;5.03;90.10;100712.00;4980976;28;20027;-80
2022/03/12 02:28:18;;;;;;;29.35;18.52;;;;;;;4.99;90.40;100713.94;4982960;28;20054;-80
2022/03/12 02:31:02;;;;;;;30.08;17.30;;;;;;;4.98;90.48;100716.63;4982483;28;20371;-79
2022/03/12 02:33:31;;;;;;;23.92;17.45;;;;;;;4.94;90.32;100710.72;4981078;28;20487;-80
2022/03/12 02:35:58;;;;;;;25.88;17.60;;;;;;;4.94;89.88;100713.34;4984773;28;20038;-80
2022/03/12 02:38:27;;;;;;;25.77;17.42;;;;;;;4.91;90.39;100716.09;4983079;28;20039;-80
2022/03/12 02:40:56;;;;;;;24.55;16.40;;;;;;;4.87;90.72;100715.44;4983593;28;20038;-80
2022/03/12 02:43:26;;;;;;;21.42;15.98;;;;;;;4.83;90.98;100713.88;4981566;28;20421;-82
2022/03/12 02:45:57;;;;;;;25.67;16.77;;;;;;;4.81;91.06;100722.75;4983487;28;20038;-81
2022/03/12 02:48:24;;;;;;;25.02;15.73;;;;;;;4.80;91.12;100723.66;4981495;28;20377;-81
2022/03/12 02:50:52;;;;;;;24.35;15.00;;;;;;;4.77;90.95;100719.41;4982966;28;20475;-81
2022/03/12 02:53:18;;;;;;;23.38;15.38;;;;;;;4.73;91.38;100717.88;4986770;28;20046;-80
2022/03/12 02:55:45;;;;;;;26.60;16.02;;;;;;;4.72;91.04;100720.56;4988153;28;20027;-81
2022/03/12 02:58:11;;;;;;;24.58;14.73;;;;;;;4.69;90.94;100712.91;4985360;28;20038;-80
2022/03/12 03:00:37;;;;;;;20.02;13.75;;;;;;;4.68;91.43;100713.81;4990434;28;20046;-79
2022/03/12 03:03:05;;;;;;;19.73;14.32;;;;;;;4.64;91.64;100712.28;4985484;28;20033;-80
2022/03/12 03:08:03;;;;;;;24.77;15.05;;;;;;;4.59;91.68;100709.06;4986236;28;20061;-80
2022/03/12 03:10:34;;;;;;;18.93;13.87;;;;;;;4.59;91.92;100709.06;4980966;28;20449;-80
2022/03/12 03:13:16;;;;;;;19.63;13.15;;;;;;;4.55;92.46;100710.97;4984225;28;20372;-78
2022/03/12 03:15:48;;;;;;;20.67;13.63;;;;;;;4.56;92.15;100714.44;5000263;28;20061;-81
2022/03/12 03:18:16;;;;;;;18.38;13.85;;;;;;;4.56;91.94;100714.44;4999528;28;20042;-81
2022/03/12 03:20:42;;;;;;;19.95;13.13;;;;;;;4.54;92.63;100717.09;5014214;28;20015;-80
2022/03/12 03:23:11;;;;;;;20.83;13.35;;;;;;;4.57;92.39;100721.34;5012111;28;20047;-80
2022/03/12 03:25:38;;;;;;;18.45;13.10;;;;;;;4.57;92.06;100718.75;5003551;28;20078;-80
2022/03/12 03:28:06;;;;;;;23.02;13.15;;;;;;;4.53;91.80;100721.53;5005412;28;20034;-81
2022/03/12 03:30:35;;;;;;;20.50;12.30;;;;;;;4.49;92.19;100722.56;4986269;28;20054;-81
2022/03/12 03:33:03;;;;;;;15.60;12.05;;;;;;;4.49;92.29;100725.19;5001026;28;20451;-81
2022/03/12 03:35:29;;;;;;;17.83;11.80;;;;;;;4.47;91.94;100723.59;5012215;28;20046;-80
2022/03/12 03:37:56;;;;;;;18.40;11.43;;;;;;;4.49;92.20;100724.34;4988615;28;20030;-81
2022/03/12 03:40:22;;;;;;;19.02;12.55;;;;;;;4.50;91.91;100719.03;4985069;28;20050;-81
2022/03/12 03:42:48;;;;;;;17.65;11.43;;;;;;;4.54;91.35;100725.81;4987664;28;20041;-81
2022/03/12 03:45:21;;;;;;;18.75;11.43;;;;;;;4.52;91.24;100724.19;4987044;28;20069;-81
2022/03/12 03:47:47;;;;;;;18.05;11.15;;;;;;;4.47;91.57;100724.44;4999414;28;20031;-82
2022/03/12 03:50:13;;;;;;;14.55;10.45;;;;;;;4.46;91.70;100725.34;4989023;28;20450;-81
2022/03/12 03:52:39;;;;;;;14.38;10.73;;;;;;;4.48;91.23;100726.09;4978146;28;20089;-82
2022/03/12 03:55:05;;;;;;;19.30;11.38;;;;;;;4.48;91.27;100723.50;4989006;28;20043;-82
2022/03/12 03:57:31;;;;;;;13.48;9.63;;;;;;;4.47;90.94;100719.22;4994326;28;20076;-81
2022/03/12 03:59:56;;;;;;;13.43;10.75;;;;;;;4.47;91.10;100726.19;5008258;28;20066;-81
2022/03/12 04:02:23;;;;;;;16.95;10.55;;;;;;;4.44;90.85;100727.19;4991492;28;20039;-81
2022/03/12 04:04:49;;;;;;;12.15;10.30;;;;;;;4.47;90.85;100727.06;5003051;28;20057;-80
2022/03/12 04:07:16;;;;;;;18.77;10.15;;;;;;;4.50;91.07;100736.50;5005849;28;20114;-80
2022/03/12 04:09:41;;;;;;;13.20;9.38;;;;;;;4.52;90.06;100730.28;5007336;28;20063;-80
2022/03/12 04:12:07;;;;;;;11.65;9.57;;;;;;;4.51;90.49;100732.97;4999783;28;20084;-80
2022/03/12 04:14:33;;;;;;;16.27;10.00;;;;;;;4.50;89.95;100737.34;4996465;28;20031;-79
2022/03/12 04:16:58;;;;;;;16.73;9.85;;;;;;;4.52;89.99;100735.50;5010545;28;20034;-80
2022/03/12 04:19:29;;;;;;;15.65;9.90;;;;;;;4.54;89.46;100738.03;5007021;28;20486;-81
2022/03/12 04:21:56;;;;;;;17.92;10.70;;;;;;;4.55;89.27;100734.50;4988966;28;20034;-81
2022/03/12 04:24:23;;;;;;;13.95;9.88;;;;;;;4.57;89.58;100721.34;4994127;28;20046;-81
2022/03/12 04:26:53;;;;;;;14.60;11.52;;;;;;;4.58;88.70;100728.28;4994188;28;20035;-80
2022/03/12 04:29:19;;;;;;;13.65;9.57;;;;;;;4.61;88.98;100733.34;5002708;28;20014;-81
2022/03/12 04:31:47;;;;;;;14.80;9.45;;;;;;;4.66;88.89;100726.09;5016564;28;20498;-81
2022/03/12 04:34:14;;;;;;;16.77;9.45;;;;;;;4.69;88.19;100731.19;5010433;28;20039;-81
2022/03/12 04:36:41;;;;;;;15.25;9.57;;;;;;;4.72;87.91;100720.56;4986842;28;20022;-80
2022/03/12 04:39:11;;;;;;;13.07;9.13;;;;;;;4.70;87.52;100717.22;5004753;28;20077;-81
2022/03/12 04:41:39;;;;;;;12.10;9.23;;;;;;;4.70;87.21;100714.59;5005344;28;20050;-81
2022/03/12 04:44:07;;;;;;;13.15;9.82;;;;;;;4.73;87.52;100719.66;4993590;28;20027;-81
2022/03/12 04:46:34;;;;;;;14.00;9.30;;;;;;;4.73;86.89;100722.25;4982858;28;20050;-81
2022/03/12 04:49:00;;;;;;;12.43;9.48;;;;;;;4.72;86.99;100728.41;4990056;28;20458;-81
2022/03/12 04:51:28;;;;;;;14.93;9.85;;;;;;;4.68;87.02;100719.03;4989916;28;20030;-80
2022/03/12 04:54:00;;;;;;;12.23;10.07;;;;;;;4.69;87.17;100720.75;4986387;28;20066;-80
2022/03/12 04:56:27;;;;;;;14.27;10.00;;;;;;;4.70;87.37;100733.75;4988187;28;20033;-80
2022/03/12 04:58:53;;;;;;;10.98;9.32;;;;;;;4.71;87.25;100734.59;4985964;28;20034;-79
2022/03/12 05:01:20;;;;;;;11.70;9.05;;;;;;;4.72;87.41;100736.25;4983820;28;20186;-80
2022/03/12 05:03:47;;;;;;;12.45;9.25;;;;;;;4.70;87.23;100725.91;4986550;28;20066;-80
2022/03/12 05:06:15;;;;;;;12.77;9.40;;;;;;;4.73;87.17;100728.34;4995236;28;20030;-81
2022/03/12 05:08:41;;;;;;;15.10;10.40;;;;;;;4.75;86.73;100742.19;4998147;28;20109;-79
2022/03/12 05:11:08;;;;;;;16.42;10.07;;;;;;;4.77;86.90;100739.50;4994234;28;20137;-79
2022/03/12 05:13:37;;;;;;;12.98;9.55;;;;;;;4.71;87.10;100750.28;4985021;28;20056;-80
2022/03/12 05:16:06;;;;;;;14.07;9.82;;;;;;;4.72;87.12;100751.94;4980573;28;20035;-81
2022/03/12 05:18:39;;;;;;;9.95;8.68;;;;;;;4.74;86.63;100750.97;4985577;28;20039;-80
2022/03/12 05:21:06;;;;;;;16.05;9.70;;;;;;;4.74;86.70;100742.28;4983005;28;20157;-79
2022/03/12 05:23:32;;;;;;;16.30;11.23;;;;;;;4.72;86.71;100738.88;4982036;28;20026;-80
2022/03/12 05:25:58;;;;;;;12.18;9.27;;;;;;;4.73;86.23;100748.41;4985817;28;20046;-80
2022/03/12 05:28:27;;;;;;;17.45;11.02;;;;;;;4.70;86.49;100745.97;4983870;28;20038;-80
2022/03/12 05:30:56;;;;;;;13.50;10.30;;;;;;;4.72;86.56;100749.34;5002432;28;20321;-80
2022/03/12 05:33:22;;;;;;;16.30;10.13;;;;;;;4.72;86.51;100757.19;5005131;28;20502;-81
2022/03/12 05:35:51;;;;;;;17.60;10.18;;;;;;;4.70;86.97;100748.59;4994877;28;20061;-80
2022/03/12 05:38:17;;;;;;;11.65;10.05;;;;;;;4.71;86.21;100761.56;5002349;28;20031;-80
2022/03/12 05:40:42;;;;;;;10.95;9.73;;;;;;;4.68;86.44;100760.88;5012415;28;20045;-80
2022/03/12 05:43:14;;;;;;;16.27;10.77;;;;;;;4.69;86.48;100773.03;4999914;28;20038;-81
2022/03/12 05:45:46;;;;;;;13.35;9.85;;;;;;;4.73;86.29;100777.19;5003993;28;20045;-80
2022/03/12 05:48:14;;;;;;;15.77;10.15;;;;;;;4.74;85.96;100781.50;4995358;28;20030;-81
2022/03/12 05:50:41;;;;;;;13.25;10.40;;;;;;;4.77;85.76;100797.88;5004582;28;20410;-80
2022/03/12 05:53:10;;;;;;;13.18;10.02;;;;;;;4.81;85.39;100790.72;4990962;28;20050;-81
2022/03/12 05:55:39;;;;;;;11.95;9.35;;;;;;;4.78;85.25;100788.25;4998863;28;20030;-82
2022/03/12 05:58:14;;;;;;;14.98;11.13;;;;;;;4.73;85.42;100785.03;4997642;28;20038;-80
2022/03/12 06:00:41;;;;;;;15.55;9.82;;;;;;;4.72;85.61;100783.31;4988846;28;20045;-80
2022/03/12 06:03:10;;;;;;;15.63;10.10;;;;;;;4.73;85.14;100790.25;4999854;28;20046;-80
2022/03/12 06:05:41;;;;;;;12.68;9.48;;;;;;;4.74;85.45;100790.19;5000099;28;20053;-80
2022/03/12 06:08:08;;;;;;;13.82;10.52;;;;;;;4.73;85.43;100796.31;4982107;28;20035;-80
2022/03/12 06:10:37;;;;;;;14.07;10.18;;;;;;;4.71;85.15;100792.13;4977710;28;20113;-80
2022/03/12 06:13:05;;;;;;;;;;;;;;;4.69;85.64;100799.19;4981677;28;20598;-81
2022/03/12 06:15:36;;;;;;;10.43;9.27;;;;;;;4.69;85.17;100804.41;4985002;28;20410;-83
2022/03/12 06:18:01;;;;;;;14.32;9.98;;;;;;;4.72;85.37;100806.84;4980591;28;20498;-83
2022/03/12 06:20:27;;;;;;;15.75;9.80;;;;;;;4.72;85.08;100804.25;4984552;28;20042;-84
2022/03/12 06:22:53;;;;;;;16.42;9.82;;;;;;;4.68;85.68;100797.47;4985333;28;20085;-83
2022/03/12 06:25:21;;;;;;;13.35;9.05;;;;;;;4.67;85.50;100798.41;4987192;28;20031;-82
2022/03/12 06:27:52;;;;;;;13.48;9.88;;;;;;;4.68;85.97;100807.94;4982284;28;20046;-82
2022/03/12 06:30:18;;;;;;;10.52;9.10;;;;;;;4.70;85.71;100811.34;4984354;28;20106;-81
2022/03/12 06:32:44;;;;;;;12.55;9.38;;;;;;;4.70;86.01;100813.94;4997749;28;20034;-80
2022/03/12 06:35:15;;;;;;;14.85;9.45;;;;;;;4.69;85.89;100809.63;4980903;28;20411;-81
2022/03/12 06:37:41;;;;;;;13.20;9.60;;;;;;;4.70;85.11;100816.56;4986305;28;20089;-81
2022/03/12 06:40:10;;;;;;;12.93;9.23;;;;;;;4.72;85.18;100820.78;4981265;28;20035;-80
2022/03/12 06:42:39;;;;;;;14.63;9.07;;;;;;;4.72;84.74;100830.38;4983604;28;20053;-80
2022/03/12 06:45:08;;;;;;;9.53;6.87;;;;;;;4.70;84.64;100821.78;4981369;28;20045;-81
2022/03/12 06:47:34;;;;;;;10.43;8.48;;;;;;;4.69;85.21;100820.09;4998103;28;20392;-82
2022/03/12 06:50:00;;;;;;;14.77;9.05;;;;;;;4.70;85.10;100821.78;4983678;28;20034;-82
2022/03/12 06:52:28;;;;;;;15.80;9.35;;;;;;;4.72;84.46;100819.94;4982094;28;20041;-82
2022/03/12 06:54:54;;;;;;;10.88;8.68;;;;;;;4.77;84.30;100823.19;4999510;28;20019;-81
2022/03/12 06:57:21;;;;;;;14.05;9.40;;;;;;;4.76;85.02;100826.72;4997050;28;20022;-81
2022/03/12 06:59:46;;;;;;;15.10;9.25;;;;;;;4.76;84.66;100831.97;5012291;28;20073;-81
2022/03/12 07:02:12;;;;;;;16.55;8.82;;;;;;;4.82;84.83;100836.88;5008221;28;20030;-82
2022/03/12 07:04:38;;;;;;;11.77;9.15;;;;;;;4.85;84.42;100831.50;4996361;28;20045;-81
2022/03/12 07:07:04;;;;;;;10.00;8.60;;;;;;;4.90;84.11;100824.25;4994035;28;20065;-82
2022/03/12 07:09:29;;;;;;;13.63;8.98;;;;;;;4.94;83.29;100831.91;4982843;28;20019;-82
2022/03/12 07:11:58;;;;;;;11.18;8.75;;;;;;;4.98;83.29;100831.72;4999230;28;20056;-82
2022/03/12 07:14:25;;;;;;;10.45;8.60;;;;;;;4.98;83.09;100837.81;4982502;28;20113;-82
2022/03/12 07:16:52;;;;;;;10.02;8.77;;;;;;;5.03;82.88;100835.81;4982511;28;20085;-83
2022/03/12 07:19:17;;;;;;;14.52;8.70;;;;;;;5.06;82.22;100840.91;4979747;28;20438;-83
2022/03/12 07:21:43;;;;;;;10.00;8.07;;;;;;;5.03;82.23;100835.81;4981432;28;20339;-81
2022/03/12 07:24:12;;;;;;;10.77;8.75;;;;;;;5.03;82.32;100846.28;4982225;28;20490;-83
2022/03/12 07:26:39;;;;;;;11.25;7.45;;;;;;;5.02;81.65;100844.56;4979000;28;20041;-80
2022/03/12 07:29:05;;;;;;;9.65;8.65;;;;;;;5.06;81.73;100845.28;4980541;28;20030;-80
2022/03/12 07:31:30;;;;;;;13.18;8.30;;;;;;;5.09;82.27;100845.97;4985097;28;20391;-81
2022/03/12 07:33:57;;;;;;;10.32;8.07;;;;;;;5.11;80.84;100849.38;4977505;28;20058;-81
2022/03/12 07:36:22;;;;;;;15.00;8.55;;;;;;;5.13;81.28;100851.88;4978322;28;20018;-80
2022/03/12 07:38:48;;;;;;;9.70;8.48;;;;;;;5.13;80.28;100857.97;4979159;28;20034;-80
2022/03/12 07:41:14;;;;;;;13.00;9.10;;;;;;;5.14;79.40;100853.59;4295835;28;10000782;-83
2022/03/12 07:43:40;;;;;;;11.38;8.38;;;;;;;5.06;79.99;100856.59;4982268;28;20037;-82
2022/03/12 07:46:06;;;;;;;9.60;8.38;;;;;;;5.02;79.36;100855.03;4984429;28;20039;-83
2022/03/12 07:48:31;;;;;;;12.15;8.50;;;;;;;5.03;79.85;100861.97;4982129;28;20027;-84
2022/03/12 07:51:00;;;;;;;13.02;8.90;;;;;;;5.03;79.51;100867.22;4989427;28;20466;-83
2022/03/12 07:53:26;;;;;;;11.07;8.02;;;;;;;5.06;79.36;100867.06;4983789;28;20057;-83
2022/03/12 07:55:51;;;;;;;13.10;8.68;;;;;;;5.08;79.65;100859.97;4985134;28;20095;-83
2022/03/12 07:58:18;;;;;;;11.10;8.45;;;;;;;5.13;79.46;100868.44;4986178;28;20031;-82
2022/03/12 08:00:43;;;;;;;11.60;8.55;;;;;;;5.18;79.59;100876.94;4983135;28;20039;-79
2022/03/12 08:03:09;;;;;;;16.15;9.77;;;;;;;5.19;78.73;100882.97;4986099;28;20052;-81
2022/03/12 08:05:35;;;;;;;14.70;9.88;;;;;;;5.17;78.14;100879.63;4997311;28;20045;-82
2022/03/12 08:08:02;;;;;;;12.82;8.70;;;;;;;5.16;78.12;100884.00;4997845;28;20081;-81
2022/03/12 08:10:29;;;;;;;13.05;9.07;;;;;;;5.14;77.92;100883.22;4997643;28;20105;-81
2022/03/12 08:12:56;;;;;;;10.13;8.85;;;;;;;5.19;78.03;100883.81;5001039;28;20065;-80
2022/03/12 08:15:22;;;;;;;13.73;9.18;;;;;;;5.24;77.58;100881.81;4998798;28;20030;-84
2022/03/12 08:17:47;;;;;;;12.20;9.68;;;;;;;5.28;77.78;100886.00;5012270;28;20015;-82
2022/03/12 08:20:14;;;;;;;13.90;9.13;;;;;;;5.34;77.17;100890.09;4988624;28;20066;-79
2022/03/12 08:22:44;;;;;;;10.82;9.65;;;;;;;5.39;76.45;100895.06;4982113;28;20030;-79
2022/03/12 08:25:12;;;;;;;14.75;9.52;;;;;;;5.43;76.35;100887.00;4986453;28;20030;-78
2022/03/12 08:27:39;;;;;;;14.15;9.68;;;;;;;5.39;75.65;100895.94;4983522;28;20041;-82
2022/03/12 08:30:07;;;;;;;14.75;9.20;;;;;;;5.43;76.14;100892.22;4984483;28;20042;-83
2022/03/12 08:32:35;;;;;;;14.05;9.57;;;;;;;5.50;76.31;100892.75;4996583;28;20093;-83
2022/03/12 08:35:01;;;;;;;11.03;9.03;;;;;;;5.61;76.31;100898.28;4638757;28;10000360;-83
2022/03/12 08:37:28;;;;;;;13.82;9.18;;;;;;;5.67;75.51;100892.75;4986170;28;20770;-79
2022/03/12 08:39:53;;;;;;;11.38;8.70;;;;;;;5.71;75.12;100899.53;4985703;28;20114;-82
2022/03/12 08:42:19;;;;;;;14.30;9.43;;;;;;;5.78;74.77;100898.25;4981120;28;20502;-81
2022/03/12 08:44:44;;;;;;;12.02;8.75;;;;;;;5.85;74.66;100904.88;4984170;28;20391;-81
2022/03/12 08:47:10;;;;;;;11.18;9.68;;;;;;;5.84;74.19;100897.94;4981892;28;20380;-82
2022/03/12 08:49:36;;;;;;;10.38;9.27;;;;;;;5.84;74.09;100903.19;4982546;28;20467;-81
2022/03/12 08:52:02;;;;;;;11.48;8.75;;;;;;;5.87;73.56;100912.66;5000743;28;20117;-81
2022/03/12 08:54:28;;;;;;;13.48;10.55;;;;;;;5.90;73.05;100915.16;4985501;28;20065;-78
2022/03/12 08:56:53;;;;;;;14.32;9.73;;;;;;;5.90;73.55;100915.16;4982035;28;20218;-80
2022/03/12 08:59:19;;;;;;;13.30;9.65;;;;;;;5.91;73.68;100915.06;4985041;28;20031;-80
2022/03/12 09:01:46;;;;;;;10.55;8.57;;;;;;;5.82;72.60;100914.69;4979089;28;20109;-79
2022/03/12 09:04:12;;;;;;;14.27;10.32;;;;;;;5.80;72.51;100919.16;4981190;28;20038;-79
2022/03/12 09:06:38;;;;;;;12.63;10.05;;;;;;;5.82;72.74;100915.53;4983776;28;20902;-80
2022/03/12 09:09:04;;;;;;;13.82;9.63;;;;;;;5.84;72.73;100918.91;4981574;28;20031;-80
2022/03/12 09:11:30;;;;;;;13.55;9.63;;;;;;;5.89;72.54;100919.53;4985138;28;20089;-81
2022/03/12 09:13:56;;;;;;;11.77;9.30;;;;;;;5.94;72.44;100914.94;4980964;28;20039;-78
2022/03/12 09:16:22;;;;;;;13.23;9.27;;;;;;;5.99;72.00;100917.31;4981422;28;20030;-80
2022/03/12 09:18:48;;;;;;;11.65;9.32;;;;;;;6.07;71.63;100921.19;4984179;28;20117;-83
2022/03/12 09:21:14;;;;;;;14.10;10.05;;;;;;;6.11;71.57;100925.38;4984133;28;20109;-79
2022/03/12 09:23:39;;;;;;;17.27;9.93;;;;;;;6.20;71.25;100920.56;4982024;28;20517;-77
2022/03/12 09:26:06;;;;;;;17.77;10.07;;;;;;;6.26;71.06;100920.22;4983545;28;20035;-81
2022/03/12 09:28:32;;;;;;;11.50;9.52;;;;;;;6.29;70.62;100922.69;4984485;28;20522;-81
2022/03/12 09:30:58;;;;;;;13.07;9.93;;;;;;;6.32;70.54;100920.75;4981048;28;20546;-81
2022/03/12 09:33:24;;;;;;;14.68;10.10;;;;;;;6.37;70.37;100923.09;4983674;28;20125;-81
2022/03/12 09:35:51;;;;;;;12.88;10.15;;;;;;;6.37;70.84;100923.97;4982536;28;20038;-81
2022/03/12 09:38:17;;;;;;;11.45;9.63;;;;;;;6.32;70.45;100927.75;4988663;28;20034;-81
2022/03/12 09:40:44;;;;;;;14.73;9.63;;;;;;;6.28;70.78;100926.25;4983377;28;20038;-82
2022/03/12 09:43:11;;;;;;;13.20;9.82;;;;;;;6.23;70.84;100917.78;4981786;28;20070;-80
2022/03/12 09:45:37;;;;;;;14.88;9.90;;;;;;;6.21;70.17;100922.25;4983927;28;20873;-81
2022/03/12 09:48:04;;;;;;;16.83;10.27;;;;;;;6.24;70.02;100928.19;4981295;28;20027;-81
2022/03/12 09:50:30;;;;;;;11.40;9.48;;;;;;;6.27;70.39;100930.63;4980747;28;20100;-80
2022/03/12 09:52:56;;;;;;;12.00;9.30;;;;;;;6.20;70.03;100931.03;4985178;28;20110;-79
2022/03/12 09:55:22;;;;;;;16.48;9.57;;;;;;;6.20;69.85;100925.78;4980442;28;20045;-80
2022/03/12 09:57:49;;;;;;;12.43;9.25;;;;;;;6.21;69.86;100917.84;4982520;28;20138;-80
2022/03/12 10:00:17;;;;;;;13.25;9.85;;;;;;;6.29;70.39;100920.06;4984797;28;20034;-81
2022/03/12 10:02:43;;;;;;;13.98;9.70;;;;;;;6.33;69.76;100917.19;5014697;28;20462;-79
2022/03/12 10:05:13;;;;;;;12.40;9.05;;;;;;;6.39;69.37;100921.25;4981607;28;20027;-80
2022/03/12 10:07:41;;;;;;;12.85;9.57;;;;;;;6.46;69.76;100914.75;4985722;28;20035;-80
2022/03/12 10:10:11;;;;;;;14.38;9.73;;;;;;;6.49;69.01;100911.97;5015259;28;20038;-78
2022/03/12 10:12:36;;;;;;;15.20;10.68;;;;;;;6.57;68.95;100912.41;4980953;28;20046;-82
2022/03/12 10:15:02;;;;;;;14.23;9.30;;;;;;;6.63;69.30;100908.59;4983993;28;20114;-80
2022/03/12 10:17:30;;;;;;;11.02;9.30;;;;;;;6.68;68.83;100911.78;4980384;28;20041;-80
2022/03/12 10:19:56;;;;;;;14.15;8.93;;;;;;;6.71;68.42;100916.88;4981859;28;20030;-79
2022/03/12 10:22:23;;;;;;;14.32;9.10;;;;;;;6.79;68.42;100910.25;4982066;28;20088;-81
2022/03/12 10:24:50;;;;;;;13.30;8.80;;;;;;;6.77;67.53;100914.78;4998265;28;20030;-80
2022/03/12 10:27:15;;;;;;;12.23;9.52;;;;;;;6.71;67.16;100922.97;4993952;28;20037;-81
2022/03/12 10:29:41;;;;;;;15.60;9.75;;;;;;;6.77;67.86;100906.91;4989942;28;20026;-81
2022/03/12 10:32:25;;;;;;;13.70;9.00;;;;;;;6.82;67.25;100912.72;4989838;28;20399;-81
2022/03/12 10:34:52;;;;;;;10.98;9.30;;;;;;;6.83;66.77;100906.53;5000004;28;20045;-80
2022/03/12 10:37:27;;;;;;;13.75;9.45;;;;;;;6.81;66.30;100913.66;4987451;28;20027;-82
2022/03/12 10:40:21;;;;;;;14.40;10.13;;;;;;;6.85;65.47;100907.31;5010822;28;20053;-85
2022/03/12 10:42:53;;;;;;;11.52;9.48;;;;;;;6.91;65.40;100909.56;5012078;28;20049;-81
2022/03/12 10:45:24;;;;;;;13.63;10.35;;;;;;;6.96;65.29;100907.53;4999960;28;20034;-82
2022/03/12 10:47:53;;;;;;;;;;;;;;;6.98;64.72;100900.44;4988208;28;20027;-80
2022/03/12 10:50:26;;;;;;;12.10;9.90;;;;;;;6.96;64.89;100909.31;4991975;28;19917;-81
2022/03/12 10:52:55;;;;;;;14.90;10.15;;;;;;;6.93;64.92;100905.09;4993418;28;20038;-80
2022/03/12 10:55:29;;;;;;;15.27;9.65;;;;;;;6.95;64.93;100903.22;4990947;28;20037;-81
2022/03/12 10:57:59;;;;;;;11.95;10.18;;;;;;;6.97;65.63;100906.59;4987148;28;20034;-81
2022/03/12 11:00:26;;;;;;;13.02;10.25;;;;;;;6.94;64.83;100909.41;4983438;28;20066;-81
2022/03/12 11:02:59;;;;;;;13.70;9.65;;;;;;;6.86;64.50;100901.13;4980596;28;20058;-80
2022/03/12 11:05:28;;;;;;;12.38;9.40;;;;;;;6.90;64.61;100897.38;4982605;28;20050;-81
2022/03/12 11:08:16;;;;;;;13.00;9.45;;;;;;;6.93;64.85;100899.84;4985499;28;20468;-80
2022/03/12 11:10:48;;;;;;;15.75;9.90;;;;;;;6.98;64.99;100894.34;4980714;28;20039;-81
2022/03/12 11:13:27;;;;;;;15.13;10.15;;;;;;;7.00;65.40;100897.72;4982099;28;20121;-81
2022/03/12 11:16:12;;;;;;;12.50;10.10;;;;;;;6.96;65.62;100891.78;4981934;28;20493;-80
2022/03/12 11:19:08;;;;;;;11.80;10.27;;;;;;;6.96;65.81;100891.78;4980492;28;20407;-81
2022/03/12 11:21:50;;;;;;;13.82;10.40;;;;;;;6.89;66.06;100890.44;4978241;28;20182;-79
2022/03/12 11:24:51;;;;;;;12.82;9.98;;;;;;;6.92;65.40;100887.66;4997665;28;20042;-81
2022/03/12 11:27:34;;;;;;;14.75;10.93;;;;;;;6.91;64.71;100883.34;4982696;28;20089;-80